sensor_id;sensor_type;location;lat;lon;timestamp;P1;durP1;ratioP1;P2;durP2;ratioP2
37527;SDS011;23372;52.050;4.810;2022-09-29T00:01:46;4.73;;;3.30;;
37527;SDS011;23372;52.050;4.810;2022-09-29T00:04:12;7.23;;;3.77;;
37527;SDS011;23372;52.050;4.810;2022-09-29T00:06:38;5.80;;;3.87;;
37527;SDS011;23372;52.050;4.810;2022-09-29T00:09:03;5.73;;;4.27;;
37527;SDS011;23372;52.050;4.810;2022-09-29T00:11:29;6.97;;;4.43;;
37527;SDS011;23372;52.050;4.810;2022-09-29T00:13:54;7.47;;;4.60;;
37527;SDS011;23372;52.050;4.810;2022-09-29T00:16:20;138.03;;;7.30;;
37527;SDS011;23372;52.050;4.810;2022-09-29T00:18:45;133.77;;;7.10;;
37527;SDS011;23372;52.050;4.810;2022-09-29T00:21:15;164.70;;;9.87;;
37527;SDS011;23372;52.050;4.810;2022-09-29T00:23:43;92.00;;;7.43;;
37527;SDS011;23372;52.050;4.810;2022-09-29T00:28:38;78.00;;;6.10;;
37527;SDS011;23372;52.050;4.810;2022-09-29T00:31:06;20.70;;;2.07;;
37527;SDS011;23372;52.050;4.810;2022-09-29T00:33:34;91.63;;;4.87;;
37527;SDS011;23372;52.050;4.810;2022-09-29T00:36:04;30.90;;;3.30;;
37527;SDS011;23372;52.050;4.810;2022-09-29T00:38:31;23.97;;;2.70;;
37527;SDS011;23372;52.050;4.810;2022-09-29T00:40:57;4.57;;;2.07;;
37527;SDS011;23372;52.050;4.810;2022-09-29T00:43:45;22.73;;;3.27;;
37527;SDS011;23372;52.050;4.810;2022-09-29T00:46:09;3.63;;;2.60;;
37527;SDS011;23372;52.050;4.810;2022-09-29T00:48:36;7.23;;;3.50;;
37527;SDS011;23372;52.050;4.810;2022-09-29T00:51:02;5.43;;;3.70;;
37527;SDS011;23372;52.050;4.810;2022-09-29T00:53:28;3.77;;;2.93;;
37527;SDS011;23372;52.050;4.810;2022-09-29T00:55:58;6.73;;;3.73;;
37527;SDS011;23372;52.050;4.810;2022-09-29T01:01:19;10.63;;;3.60;;
37527;SDS011;23372;52.050;4.810;2022-09-29T01:03:46;11.77;;;3.30;;
37527;SDS011;23372;52.050;4.810;2022-09-29T01:06:25;44.97;;;3.87;;
37527;SDS011;23372;52.050;4.810;2022-09-29T01:09:02;83.70;;;5.27;;
37527;SDS011;23372;52.050;4.810;2022-09-29T01:11:30;99.63;;;6.00;;
37527;SDS011;23372;52.050;4.810;2022-09-29T01:13:56;116.13;;;5.93;;
37527;SDS011;23372;52.050;4.810;2022-09-29T01:16:27;69.80;;;4.20;;
37527;SDS011;23372;52.050;4.810;2022-09-29T01:18:53;112.87;;;5.53;;
37527;SDS011;23372;52.050;4.810;2022-09-29T01:38:05;111.17;;;6.97;;
37527;SDS011;23372;52.050;4.810;2022-09-29T01:40:53;125.77;;;7.07;;
37527;SDS011;23372;52.050;4.810;2022-09-29T01:46:44;141.57;;;7.73;;
37527;SDS011;23372;52.050;4.810;2022-09-29T01:48:55;73.63;;;4.67;;
37527;SDS011;23372;52.050;4.810;2022-09-29T01:51:24;63.77;;;4.33;;
37527;SDS011;23372;52.050;4.810;2022-09-29T01:53:55;57.97;;;4.93;;
37527;SDS011;23372;52.050;4.810;2022-09-29T01:56:35;76.47;;;5.27;;
37527;SDS011;23372;52.050;4.810;2022-09-29T01:59:06;25.57;;;3.10;;
37527;SDS011;23372;52.050;4.810;2022-09-29T02:01:38;30.60;;;3.33;;
37527;SDS011;23372;52.050;4.810;2022-09-29T02:04:08;19.73;;;2.90;;
37527;SDS011;23372;52.050;4.810;2022-09-29T02:06:49;30.33;;;3.77;;
37527;SDS011;23372;52.050;4.810;2022-09-29T02:09:32;46.27;;;4.17;;
37527;SDS011;23372;52.050;4.810;2022-09-29T02:12:02;50.00;;;4.30;;
37527;SDS011;23372;52.050;4.810;2022-09-29T02:14:32;49.23;;;5.70;;
37527;SDS011;23372;52.050;4.810;2022-09-29T02:17:06;40.67;;;5.23;;
37527;SDS011;23372;52.050;4.810;2022-09-29T02:19:37;40.33;;;5.03;;
37527;SDS011;23372;52.050;4.810;2022-09-29T02:22:04;17.40;;;4.17;;
37527;SDS011;23372;52.050;4.810;2022-09-29T02:24:30;15.10;;;3.53;;
37527;SDS011;23372;52.050;4.810;2022-09-29T02:26:56;31.17;;;5.87;;
37527;SDS011;23372;52.050;4.810;2022-09-29T02:29:22;10.70;;;3.63;;
37527;SDS011;23372;52.050;4.810;2022-09-29T02:31:47;26.90;;;4.23;;
37527;SDS011;23372;52.050;4.810;2022-09-29T02:34:15;8.67;;;3.30;;
37527;SDS011;23372;52.050;4.810;2022-09-29T02:36:48;14.33;;;3.47;;
37527;SDS011;23372;52.050;4.810;2022-09-29T02:39:42;7.70;;;3.23;;
37527;SDS011;23372;52.050;4.810;2022-09-29T02:50:15;36.37;;;4.10;;
37527;SDS011;23372;52.050;4.810;2022-09-29T02:59:06;13.20;;;3.50;;
37527;SDS011;23372;52.050;4.810;2022-09-29T03:01:59;20.83;;;3.47;;
37527;SDS011;23372;52.050;4.810;2022-09-29T03:04:25;31.97;;;3.40;;
37527;SDS011;23372;52.050;4.810;2022-09-29T03:06:52;17.60;;;3.20;;
37527;SDS011;23372;52.050;4.810;2022-09-29T03:09:18;22.50;;;3.63;;
37527;SDS011;23372;52.050;4.810;2022-09-29T03:11:44;11.43;;;2.87;;
37527;SDS011;23372;52.050;4.810;2022-09-29T03:14:10;27.67;;;3.43;;
37527;SDS011;23372;52.050;4.810;2022-09-29T03:16:35;11.40;;;2.90;;
37527;SDS011;23372;52.050;4.810;2022-09-29T03:19:01;7.37;;;3.07;;
37527;SDS011;23372;52.050;4.810;2022-09-29T03:21:29;13.10;;;3.43;;
37527;SDS011;23372;52.050;4.810;2022-09-29T03:23:54;26.00;;;3.97;;
37527;SDS011;23372;52.050;4.810;2022-09-29T03:26:20;22.27;;;4.20;;
37527;SDS011;23372;52.050;4.810;2022-09-29T03:28:47;23.57;;;4.10;;
37527;SDS011;23372;52.050;4.810;2022-09-29T03:31:14;12.53;;;3.90;;
37527;SDS011;23372;52.050;4.810;2022-09-29T03:33:39;9.50;;;3.37;;
37527;SDS011;23372;52.050;4.810;2022-09-29T03:36:05;9.83;;;3.63;;
37527;SDS011;23372;52.050;4.810;2022-09-29T03:38:32;15.13;;;4.00;;
37527;SDS011;23372;52.050;4.810;2022-09-29T03:40:58;44.90;;;5.20;;
37527;SDS011;23372;52.050;4.810;2022-09-29T03:43:23;25.77;;;4.33;;
37527;SDS011;23372;52.050;4.810;2022-09-29T03:45:49;33.97;;;4.07;;
37527;SDS011;23372;52.050;4.810;2022-09-29T03:48:17;91.40;;;6.73;;
37527;SDS011;23372;52.050;4.810;2022-09-29T03:50:43;104.23;;;9.00;;
37527;SDS011;23372;52.050;4.810;2022-09-29T03:53:09;52.60;;;5.20;;
37527;SDS011;23372;52.050;4.810;2022-09-29T03:55:35;56.37;;;5.03;;
37527;SDS011;23372;52.050;4.810;2022-09-29T03:58:00;65.57;;;5.23;;
37527;SDS011;23372;52.050;4.810;2022-09-29T04:00:26;32.50;;;4.10;;
37527;SDS011;23372;52.050;4.810;2022-09-29T04:02:55;51.67;;;5.13;;
37527;SDS011;23372;52.050;4.810;2022-09-29T04:05:21;22.50;;;4.00;;
37527;SDS011;23372;52.050;4.810;2022-09-29T04:07:46;12.13;;;3.83;;
37527;SDS011;23372;52.050;4.810;2022-09-29T04:10:12;18.70;;;4.27;;
37527;SDS011;23372;52.050;4.810;2022-09-29T04:12:38;38.93;;;5.00;;
37527;SDS011;23372;52.050;4.810;2022-09-29T04:15:04;22.87;;;4.20;;
37527;SDS011;23372;52.050;4.810;2022-09-29T04:17:30;14.07;;;3.30;;
37527;SDS011;23372;52.050;4.810;2022-09-29T04:19:55;20.80;;;3.90;;
37527;SDS011;23372;52.050;4.810;2022-09-29T04:22:21;36.53;;;4.50;;
37527;SDS011;23372;52.050;4.810;2022-09-29T04:24:46;25.57;;;4.00;;
37527;SDS011;23372;52.050;4.810;2022-09-29T04:27:12;12.30;;;3.67;;
37527;SDS011;23372;52.050;4.810;2022-09-29T04:29:38;23.37;;;3.87;;
37527;SDS011;23372;52.050;4.810;2022-09-29T04:32:03;26.57;;;4.50;;
37527;SDS011;23372;52.050;4.810;2022-09-29T04:34:30;12.27;;;3.97;;
37527;SDS011;23372;52.050;4.810;2022-09-29T04:36:56;34.10;;;4.27;;
37527;SDS011;23372;52.050;4.810;2022-09-29T04:39:21;41.63;;;5.87;;
37527;SDS011;23372;52.050;4.810;2022-09-29T04:41:47;16.27;;;3.50;;
37527;SDS011;23372;52.050;4.810;2022-09-29T04:44:12;14.40;;;4.40;;
37527;SDS011;23372;52.050;4.810;2022-09-29T04:46:38;27.20;;;5.10;;
37527;SDS011;23372;52.050;4.810;2022-09-29T04:49:04;14.43;;;4.00;;
37527;SDS011;23372;52.050;4.810;2022-09-29T04:51:29;17.27;;;3.87;;
37527;SDS011;23372;52.050;4.810;2022-09-29T04:53:56;23.33;;;3.87;;
37527;SDS011;23372;52.050;4.810;2022-09-29T04:56:22;27.10;;;4.37;;
37527;SDS011;23372;52.050;4.810;2022-09-29T04:58:48;33.23;;;5.57;;
37527;SDS011;23372;52.050;4.810;2022-09-29T05:01:14;18.30;;;4.57;;
37527;SDS011;23372;52.050;4.810;2022-09-29T05:03:40;35.33;;;5.43;;
37527;SDS011;23372;52.050;4.810;2022-09-29T05:06:06;51.83;;;6.13;;
37527;SDS011;23372;52.050;4.810;2022-09-29T05:08:33;30.50;;;4.63;;
37527;SDS011;23372;52.050;4.810;2022-09-29T05:11:02;39.13;;;6.30;;
37527;SDS011;23372;52.050;4.810;2022-09-29T05:13:31;28.37;;;5.07;;
37527;SDS011;23372;52.050;4.810;2022-09-29T05:15:57;21.77;;;4.73;;
37527;SDS011;23372;52.050;4.810;2022-09-29T05:18:23;19.37;;;4.47;;
37527;SDS011;23372;52.050;4.810;2022-09-29T05:20:49;50.20;;;5.80;;
37527;SDS011;23372;52.050;4.810;2022-09-29T05:23:14;15.00;;;4.07;;
37527;SDS011;23372;52.050;4.810;2022-09-29T05:25:40;17.17;;;4.30;;
37527;SDS011;23372;52.050;4.810;2022-09-29T05:28:07;23.40;;;4.23;;
37527;SDS011;23372;52.050;4.810;2022-09-29T05:30:34;15.77;;;3.47;;
37527;SDS011;23372;52.050;4.810;2022-09-29T05:33:00;10.47;;;3.30;;
37527;SDS011;23372;52.050;4.810;2022-09-29T05:35:25;18.47;;;4.33;;
37527;SDS011;23372;52.050;4.810;2022-09-29T05:37:51;23.80;;;4.53;;
37527;SDS011;23372;52.050;4.810;2022-09-29T05:40:16;58.10;;;6.33;;
37527;SDS011;23372;52.050;4.810;2022-09-29T05:42:43;13.33;;;4.07;;
37527;SDS011;23372;52.050;4.810;2022-09-29T05:45:09;12.33;;;4.20;;
37527;SDS011;23372;52.050;4.810;2022-09-29T05:47:35;22.40;;;4.13;;
37527;SDS011;23372;52.050;4.810;2022-09-29T05:50:05;92.83;;;7.57;;
37527;SDS011;23372;52.050;4.810;2022-09-29T05:52:30;73.07;;;7.27;;
37527;SDS011;23372;52.050;4.810;2022-09-29T05:54:56;42.37;;;5.30;;
37527;SDS011;23372;52.050;4.810;2022-09-29T05:57:21;22.70;;;4.53;;
37527;SDS011;23372;52.050;4.810;2022-09-29T05:59:47;15.07;;;5.10;;
37527;SDS011;23372;52.050;4.810;2022-09-29T06:02:12;38.40;;;6.27;;
37527;SDS011;23372;52.050;4.810;2022-09-29T06:04:38;19.20;;;4.63;;
37527;SDS011;23372;52.050;4.810;2022-09-29T06:07:03;21.47;;;4.77;;
37527;SDS011;23372;52.050;4.810;2022-09-29T06:09:29;35.87;;;5.27;;
37527;SDS011;23372;52.050;4.810;2022-09-29T06:11:54;12.63;;;4.30;;
37527;SDS011;23372;52.050;4.810;2022-09-29T06:14:20;7.37;;;4.07;;
37527;SDS011;23372;52.050;4.810;2022-09-29T06:16:45;11.13;;;4.00;;
37527;SDS011;23372;52.050;4.810;2022-09-29T06:19:11;8.73;;;4.30;;
37527;SDS011;23372;52.050;4.810;2022-09-29T06:21:37;26.63;;;4.60;;
37527;SDS011;23372;52.050;4.810;2022-09-29T06:24:03;31.07;;;4.90;;
37527;SDS011;23372;52.050;4.810;2022-09-29T06:26:31;16.40;;;5.20;;
37527;SDS011;23372;52.050;4.810;2022-09-29T06:28:56;23.07;;;5.33;;
37527;SDS011;23372;52.050;4.810;2022-09-29T06:31:23;23.23;;;5.27;;
37527;SDS011;23372;52.050;4.810;2022-09-29T06:33:50;18.40;;;5.67;;
37527;SDS011;23372;52.050;4.810;2022-09-29T06:39:00;10.80;;;5.10;;
37527;SDS011;23372;52.050;4.810;2022-09-29T06:41:25;6.37;;;5.23;;
37527;SDS011;23372;52.050;4.810;2022-09-29T06:43:52;16.77;;;5.53;;
37527;SDS011;23372;52.050;4.810;2022-09-29T06:46:18;20.90;;;5.80;;
37527;SDS011;23372;52.050;4.810;2022-09-29T06:48:44;19.97;;;5.70;;
37527;SDS011;23372;52.050;4.810;2022-09-29T06:51:10;28.60;;;6.00;;
37527;SDS011;23372;52.050;4.810;2022-09-29T06:53:35;32.47;;;7.00;;
37527;SDS011;23372;52.050;4.810;2022-09-29T06:56:01;19.60;;;6.33;;
37527;SDS011;23372;52.050;4.810;2022-09-29T06:58:27;9.17;;;5.63;;
37527;SDS011;23372;52.050;4.810;2022-09-29T07:00:53;8.73;;;6.27;;
37527;SDS011;23372;52.050;4.810;2022-09-29T07:03:19;9.07;;;6.83;;
37527;SDS011;23372;52.050;4.810;2022-09-29T07:05:45;11.90;;;7.20;;
37527;SDS011;23372;52.050;4.810;2022-09-29T07:08:11;11.70;;;8.07;;
37527;SDS011;23372;52.050;4.810;2022-09-29T07:10:36;11.67;;;8.37;;
37527;SDS011;23372;52.050;4.810;2022-09-29T07:13:02;11.70;;;8.50;;
37527;SDS011;23372;52.050;4.810;2022-09-29T07:15:29;12.97;;;8.77;;
37527;SDS011;23372;52.050;4.810;2022-09-29T07:17:57;13.20;;;9.13;;
37527;SDS011;23372;52.050;4.810;2022-09-29T07:20:24;15.63;;;9.57;;
37527;SDS011;23372;52.050;4.810;2022-09-29T07:22:51;18.57;;;11.33;;
37527;SDS011;23372;52.050;4.810;2022-09-29T07:25:16;18.83;;;12.57;;
37527;SDS011;23372;52.050;4.810;2022-09-29T07:27:42;18.13;;;13.13;;
37527;SDS011;23372;52.050;4.810;2022-09-29T07:30:08;19.23;;;13.40;;
37527;SDS011;23372;52.050;4.810;2022-09-29T07:32:34;17.63;;;12.63;;
37527;SDS011;23372;52.050;4.810;2022-09-29T07:35:00;19.13;;;12.43;;
37527;SDS011;23372;52.050;4.810;2022-09-29T07:37:26;21.33;;;13.10;;
37527;SDS011;23372;52.050;4.810;2022-09-29T07:39:52;18.30;;;13.30;;
37527;SDS011;23372;52.050;4.810;2022-09-29T07:42:18;17.40;;;12.73;;
37527;SDS011;23372;52.050;4.810;2022-09-29T07:44:45;20.70;;;14.90;;
37527;SDS011;23372;52.050;4.810;2022-09-29T07:47:11;22.07;;;13.93;;
37527;SDS011;23372;52.050;4.810;2022-09-29T07:49:37;22.70;;;15.47;;
37527;SDS011;23372;52.050;4.810;2022-09-29T07:52:03;21.10;;;15.00;;
37527;SDS011;23372;52.050;4.810;2022-09-29T07:54:29;19.80;;;14.93;;
37527;SDS011;23372;52.050;4.810;2022-09-29T07:56:55;18.57;;;14.77;;
37527;SDS011;23372;52.050;4.810;2022-09-29T07:59:20;19.93;;;15.13;;
37527;SDS011;23372;52.050;4.810;2022-09-29T08:01:46;20.87;;;15.33;;
37527;SDS011;23372;52.050;4.810;2022-09-29T08:04:12;22.17;;;15.93;;
37527;SDS011;23372;52.050;4.810;2022-09-29T08:06:38;21.97;;;16.20;;
37527;SDS011;23372;52.050;4.810;2022-09-29T08:09:04;21.50;;;15.33;;
37527;SDS011;23372;52.050;4.810;2022-09-29T08:11:30;25.30;;;17.00;;
37527;SDS011;23372;52.050;4.810;2022-09-29T08:13:57;22.30;;;16.97;;
37527;SDS011;23372;52.050;4.810;2022-09-29T08:16:23;22.03;;;16.07;;
37527;SDS011;23372;52.050;4.810;2022-09-29T08:18:48;23.50;;;17.47;;
37527;SDS011;23372;52.050;4.810;2022-09-29T08:21:14;23.33;;;18.20;;
37527;SDS011;23372;52.050;4.810;2022-09-29T08:23:40;29.00;;;18.50;;
37527;SDS011;23372;52.050;4.810;2022-09-29T08:26:08;24.47;;;17.43;;
37527;SDS011;23372;52.050;4.810;2022-09-29T08:28:38;25.27;;;18.27;;
37527;SDS011;23372;52.050;4.810;2022-09-29T08:31:08;25.73;;;18.37;;
37527;SDS011;23372;52.050;4.810;2022-09-29T08:33:38;23.40;;;17.67;;
37527;SDS011;23372;52.050;4.810;2022-09-29T08:36:05;24.90;;;18.30;;
37527;SDS011;23372;52.050;4.810;2022-09-29T08:38:38;25.43;;;18.67;;
37527;SDS011;23372;52.050;4.810;2022-09-29T08:41:12;24.13;;;18.17;;
37527;SDS011;23372;52.050;4.810;2022-09-29T08:43:40;26.27;;;19.57;;
37527;SDS011;23372;52.050;4.810;2022-09-29T08:46:10;29.80;;;20.00;;
37527;SDS011;23372;52.050;4.810;2022-09-29T08:48:39;24.50;;;18.67;;
37527;SDS011;23372;52.050;4.810;2022-09-29T08:51:24;24.10;;;18.60;;
37527;SDS011;23372;52.050;4.810;2022-09-29T08:53:59;25.10;;;19.90;;
37527;SDS011;23372;52.050;4.810;2022-09-29T08:56:39;27.83;;;18.73;;
37527;SDS011;23372;52.050;4.810;2022-09-29T08:59:07;23.43;;;18.70;;
37527;SDS011;23372;52.050;4.810;2022-09-29T09:01:36;30.40;;;21.00;;
37527;SDS011;23372;52.050;4.810;2022-09-29T09:04:33;29.60;;;19.60;;
37527;SDS011;23372;52.050;4.810;2022-09-29T09:09:55;27.10;;;20.07;;
37527;SDS011;23372;52.050;4.810;2022-09-29T09:12:27;26.33;;;19.80;;
37527;SDS011;23372;52.050;4.810;2022-09-29T09:15:17;27.47;;;21.10;;
37527;SDS011;23372;52.050;4.810;2022-09-29T09:18:17;30.90;;;21.80;;
37527;SDS011;23372;52.050;4.810;2022-09-29T09:21:12;26.10;;;20.20;;
37527;SDS011;23372;52.050;4.810;2022-09-29T09:26:11;25.70;;;19.87;;
37527;SDS011;23372;52.050;4.810;2022-09-29T09:28:40;22.90;;;17.33;;
37527;SDS011;23372;52.050;4.810;2022-09-29T09:31:17;21.47;;;16.70;;
37527;SDS011;23372;52.050;4.810;2022-09-29T09:33:56;21.30;;;17.87;;
37527;SDS011;23372;52.050;4.810;2022-09-29T09:36:39;21.47;;;16.27;;
37527;SDS011;23372;52.050;4.810;2022-09-29T09:39:19;23.87;;;15.07;;
37527;SDS011;23372;52.050;4.810;2022-09-29T09:42:17;19.67;;;12.87;;
37527;SDS011;23372;52.050;4.810;2022-09-29T09:44:46;16.30;;;12.43;;
37527;SDS011;23372;52.050;4.810;2022-09-29T09:47:21;12.83;;;11.07;;
37527;SDS011;23372;52.050;4.810;2022-09-29T09:50:11;13.90;;;11.70;;
37527;SDS011;23372;52.050;4.810;2022-09-29T09:52:43;13.63;;;11.30;;
37527;SDS011;23372;52.050;4.810;2022-09-29T09:55:19;14.83;;;10.70;;
37527;SDS011;23372;52.050;4.810;2022-09-29T10:03:07;15.33;;;10.30;;
37527;SDS011;23372;52.050;4.810;2022-09-29T10:05:34;10.95;;;8.65;;
37527;SDS011;23372;52.050;4.810;2022-09-29T10:08:04;8.63;;;7.15;;
37527;SDS011;23372;52.050;4.810;2022-09-29T10:10:31;9.13;;;7.10;;
37527;SDS011;23372;52.050;4.810;2022-09-29T10:13:00;8.43;;;6.93;;
37527;SDS011;23372;52.050;4.810;2022-09-29T10:15:28;8.38;;;6.78;;
37527;SDS011;23372;52.050;4.810;2022-09-29T10:18:00;10.80;;;6.50;;
37527;SDS011;23372;52.050;4.810;2022-09-29T10:20:34;9.65;;;7.20;;
37527;SDS011;23372;52.050;4.810;2022-09-29T10:25:49;9.07;;;7.40;;
37527;SDS011;23372;52.050;4.810;2022-09-29T10:28:27;12.07;;;6.97;;
37527;SDS011;23372;52.050;4.810;2022-09-29T10:31:00;6.78;;;5.65;;
37527;SDS011;23372;52.050;4.810;2022-09-29T10:33:26;8.73;;;5.22;;
37527;SDS011;23372;52.050;4.810;2022-09-29T10:36:02;8.88;;;5.28;;
37527;SDS011;23372;52.050;4.810;2022-09-29T10:38:32;6.63;;;5.45;;
37527;SDS011;23372;52.050;4.810;2022-09-29T10:40:59;11.60;;;5.80;;
37527;SDS011;23372;52.050;4.810;2022-09-29T10:43:35;6.72;;;5.03;;
37527;SDS011;23372;52.050;4.810;2022-09-29T10:46:03;5.30;;;4.07;;
37527;SDS011;23372;52.050;4.810;2022-09-29T10:48:29;4.38;;;3.70;;
37527;SDS011;23372;52.050;4.810;2022-09-29T10:50:59;5.45;;;4.25;;
37527;SDS011;23372;52.050;4.810;2022-09-29T10:53:32;6.63;;;4.85;;
37527;SDS011;23372;52.050;4.810;2022-09-29T10:56:07;4.40;;;3.92;;
37527;SDS011;23372;52.050;4.810;2022-09-29T10:58:53;5.30;;;4.03;;
37527;SDS011;23372;52.050;4.810;2022-09-29T11:01:20;5.45;;;3.85;;
37527;SDS011;23372;52.050;4.810;2022-09-29T11:03:47;6.45;;;3.80;;
37527;SDS011;23372;52.050;4.810;2022-09-29T11:06:23;5.18;;;3.58;;
37527;SDS011;23372;52.050;4.810;2022-09-29T11:08:55;4.63;;;3.55;;
37527;SDS011;23372;52.050;4.810;2022-09-29T11:13:49;5.57;;;4.40;;
37527;SDS011;23372;52.050;4.810;2022-09-29T11:16:18;6.60;;;3.58;;
37527;SDS011;23372;52.050;4.810;2022-09-29T11:19:03;5.47;;;3.70;;
37527;SDS011;23372;52.050;4.810;2022-09-29T11:30:21;5.70;;;3.72;;
37527;SDS011;23372;52.050;4.810;2022-09-29T11:48:47;5.63;;;3.20;;
37527;SDS011;23372;52.050;4.810;2022-09-29T11:54:40;5.70;;;3.00;;
37527;SDS011;23372;52.050;4.810;2022-09-29T11:57:31;4.22;;;3.40;;
37527;SDS011;23372;52.050;4.810;2022-09-29T12:09:02;5.47;;;2.00;;
37527;SDS011;23372;52.050;4.810;2022-09-29T12:16:35;3.17;;;2.20;;
37527;SDS011;23372;52.050;4.810;2022-09-29T12:21:45;2.72;;;1.77;;
37527;SDS011;23372;52.050;4.810;2022-09-29T12:24:18;2.20;;;1.83;;
37527;SDS011;23372;52.050;4.810;2022-09-29T12:27:25;4.20;;;1.90;;
37527;SDS011;23372;52.050;4.810;2022-09-29T12:30:01;3.60;;;1.92;;
37527;SDS011;23372;52.050;4.810;2022-09-29T12:32:41;3.00;;;1.90;;
37527;SDS011;23372;52.050;4.810;2022-09-29T12:35:22;3.60;;;1.75;;
37527;SDS011;23372;52.050;4.810;2022-09-29T12:40:48;2.72;;;2.10;;
37527;SDS011;23372;52.050;4.810;2022-09-29T12:43:21;3.70;;;2.08;;
37527;SDS011;23372;52.050;4.810;2022-09-29T12:45:57;3.40;;;2.42;;
37527;SDS011;23372;52.050;4.810;2022-09-29T12:51:12;3.15;;;1.88;;
37527;SDS011;23372;52.050;4.810;2022-09-29T12:54:05;3.83;;;2.40;;
37527;SDS011;23372;52.050;4.810;2022-09-29T13:02:22;2.88;;;1.90;;
37527;SDS011;23372;52.050;4.810;2022-09-29T13:11:38;3.35;;;1.88;;
37527;SDS011;23372;52.050;4.810;2022-09-29T13:14:33;3.28;;;1.83;;
37527;SDS011;23372;52.050;4.810;2022-09-29T13:21:00;1.88;;;1.55;;
37527;SDS011;23372;52.050;4.810;2022-09-29T13:23:32;3.45;;;2.03;;
37527;SDS011;23372;52.050;4.810;2022-09-29T13:26:19;2.63;;;2.17;;
37527;SDS011;23372;52.050;4.810;2022-09-29T13:29:00;2.33;;;1.80;;
37527;SDS011;23372;52.050;4.810;2022-09-29T13:31:36;3.78;;;2.33;;
37527;SDS011;23372;52.050;4.810;2022-09-29T13:34:03;2.72;;;1.92;;
37527;SDS011;23372;52.050;4.810;2022-09-29T13:36:31;2.78;;;2.13;;
37527;SDS011;23372;52.050;4.810;2022-09-29T13:39:02;2.38;;;1.90;;
37527;SDS011;23372;52.050;4.810;2022-09-29T13:44:18;3.08;;;1.70;;
37527;SDS011;23372;52.050;4.810;2022-09-29T13:46:48;2.60;;;1.80;;
37527;SDS011;23372;52.050;4.810;2022-09-29T13:49:15;3.22;;;1.95;;
37527;SDS011;23372;52.050;4.810;2022-09-29T13:51:59;3.33;;;1.58;;
37527;SDS011;23372;52.050;4.810;2022-09-29T13:54:35;1.27;;;1.17;;
37527;SDS011;23372;52.050;4.810;2022-09-29T13:59:36;2.75;;;1.23;;
37527;SDS011;23372;52.050;4.810;2022-09-29T14:02:29;3.65;;;1.33;;
37527;SDS011;23372;52.050;4.810;2022-09-29T14:05:02;1.77;;;1.40;;
37527;SDS011;23372;52.050;4.810;2022-09-29T14:07:50;1.92;;;1.48;;
37527;SDS011;23372;52.050;4.810;2022-09-29T14:13:06;1.27;;;1.00;;
37527;SDS011;23372;52.050;4.810;2022-09-29T14:15:48;3.95;;;1.73;;
37527;SDS011;23372;52.050;4.810;2022-09-29T14:18:34;3.58;;;1.50;;
37527;SDS011;23372;52.050;4.810;2022-09-29T14:21:13;2.90;;;1.92;;
37527;SDS011;23372;52.050;4.810;2022-09-29T14:27:20;2.65;;;1.80;;
37527;SDS011;23372;52.050;4.810;2022-09-29T14:38:04;2.00;;;1.60;;
37527;SDS011;23372;52.050;4.810;2022-09-29T14:40:53;2.67;;;2.10;;
37527;SDS011;23372;52.050;4.810;2022-09-29T14:52:19;2.63;;;1.65;;
37527;SDS011;23372;52.050;4.810;2022-09-29T14:54:54;2.60;;;1.63;;
37527;SDS011;23372;52.050;4.810;2022-09-29T15:00:37;2.67;;;1.58;;
37527;SDS011;23372;52.050;4.810;2022-09-29T15:03:14;2.75;;;1.45;;
37527;SDS011;23372;52.050;4.810;2022-09-29T15:06:15;2.38;;;1.40;;
37527;SDS011;23372;52.050;4.810;2022-09-29T15:08:42;1.60;;;1.15;;
37527;SDS011;23372;52.050;4.810;2022-09-29T15:13:55;1.80;;;1.17;;
37527;SDS011;23372;52.050;4.810;2022-09-29T15:16:34;2.65;;;1.48;;
37527;SDS011;23372;52.050;4.810;2022-09-29T15:19:07;1.13;;;0.93;;
37527;SDS011;23372;52.050;4.810;2022-09-29T15:21:55;4.35;;;1.02;;
37527;SDS011;23372;52.050;4.810;2022-09-29T15:24:45;1.98;;;1.10;;
37527;SDS011;23372;52.050;4.810;2022-09-29T15:27:26;1.35;;;1.02;;
37527;SDS011;23372;52.050;4.810;2022-09-29T15:29:53;2.50;;;1.27;;
37527;SDS011;23372;52.050;4.810;2022-09-29T15:34:48;5.50;;;1.92;;
37527;SDS011;23372;52.050;4.810;2022-09-29T15:37:15;1.58;;;1.13;;
37527;SDS011;23372;52.050;4.810;2022-09-29T15:39:43;1.90;;;1.15;;
37527;SDS011;23372;52.050;4.810;2022-09-29T15:47:25;1.30;;;1.10;;
37527;SDS011;23372;52.050;4.810;2022-09-29T15:50:05;4.18;;;1.60;;
37527;SDS011;23372;52.050;4.810;2022-09-29T15:52:48;2.10;;;1.60;;
37527;SDS011;23372;52.050;4.810;2022-09-29T15:55:15;2.15;;;1.63;;
37527;SDS011;23372;52.050;4.810;2022-09-29T15:57:43;2.20;;;1.65;;
37527;SDS011;23372;52.050;4.810;2022-09-29T16:05:44;2.00;;;1.10;;
37527;SDS011;23372;52.050;4.810;2022-09-29T16:08:21;3.47;;;1.55;;
37527;SDS011;23372;52.050;4.810;2022-09-29T16:10:53;2.20;;;1.35;;
37527;SDS011;23372;52.050;4.810;2022-09-29T16:13:24;1.80;;;1.17;;
37527;SDS011;23372;52.050;4.810;2022-09-29T16:15:57;1.80;;;1.30;;
37527;SDS011;23372;52.050;4.810;2022-09-29T16:21:12;2.15;;;1.38;;
37527;SDS011;23372;52.050;4.810;2022-09-29T16:23:47;2.63;;;1.90;;
37527;SDS011;23372;52.050;4.810;2022-09-29T16:26:17;2.47;;;1.70;;
37527;SDS011;23372;52.050;4.810;2022-09-29T16:28:58;2.45;;;1.92;;
37527;SDS011;23372;52.050;4.810;2022-09-29T16:31:31;2.83;;;1.63;;
37527;SDS011;23372;52.050;4.810;2022-09-29T16:33:58;3.90;;;2.05;;
37527;SDS011;23372;52.050;4.810;2022-09-29T16:36:25;3.95;;;2.00;;
37527;SDS011;23372;52.050;4.810;2022-09-29T16:38:56;3.50;;;2.10;;
37527;SDS011;23372;52.050;4.810;2022-09-29T16:41:34;4.75;;;1.80;;
37527;SDS011;23372;52.050;4.810;2022-09-29T16:44:05;4.70;;;2.15;;
37527;SDS011;23372;52.050;4.810;2022-09-29T16:46:50;6.28;;;2.67;;
37527;SDS011;23372;52.050;4.810;2022-09-29T16:49:42;2.53;;;2.05;;
37527;SDS011;23372;52.050;4.810;2022-09-29T16:57:55;4.65;;;2.22;;
37527;SDS011;23372;52.050;4.810;2022-09-29T17:00:29;3.22;;;2.17;;
37527;SDS011;23372;52.050;4.810;2022-09-29T17:02:55;3.20;;;2.13;;
37527;SDS011;23372;52.050;4.810;2022-09-29T17:05:21;3.15;;;2.50;;
37527;SDS011;23372;52.050;4.810;2022-09-29T17:07:48;3.60;;;2.60;;
37527;SDS011;23372;52.050;4.810;2022-09-29T17:10:19;2.60;;;2.40;;
37527;SDS011;23372;52.050;4.810;2022-09-29T17:12:45;3.33;;;2.40;;
37527;SDS011;23372;52.050;4.810;2022-09-29T17:15:14;6.13;;;2.90;;
37527;SDS011;23372;52.050;4.810;2022-09-29T17:17:41;4.67;;;2.80;;
37527;SDS011;23372;52.050;4.810;2022-09-29T17:20:17;4.40;;;2.93;;
37527;SDS011;23372;52.050;4.810;2022-09-29T17:22:45;4.83;;;3.00;;
37527;SDS011;23372;52.050;4.810;2022-09-29T17:25:12;4.80;;;2.87;;
37527;SDS011;23372;52.050;4.810;2022-09-29T17:27:38;3.60;;;2.53;;
37527;SDS011;23372;52.050;4.810;2022-09-29T17:30:24;8.40;;;2.77;;
37527;SDS011;23372;52.050;4.810;2022-09-29T17:32:53;5.30;;;3.37;;
37527;SDS011;23372;52.050;4.810;2022-09-29T17:35:20;4.47;;;2.80;;
37527;SDS011;23372;52.050;4.810;2022-09-29T17:37:48;5.03;;;2.80;;
37527;SDS011;23372;52.050;4.810;2022-09-29T17:40:26;5.77;;;2.97;;
37527;SDS011;23372;52.050;4.810;2022-09-29T17:43:05;5.25;;;3.50;;
37527;SDS011;23372;52.050;4.810;2022-09-29T17:45:31;5.77;;;3.30;;
37527;SDS011;23372;52.050;4.810;2022-09-29T17:47:59;3.97;;;3.00;;
37527;SDS011;23372;52.050;4.810;2022-09-29T17:50:36;4.37;;;3.30;;
37527;SDS011;23372;52.050;4.810;2022-09-29T17:53:10;5.87;;;4.10;;
37527;SDS011;23372;52.050;4.810;2022-09-29T17:55:38;6.57;;;3.93;;
37527;SDS011;23372;52.050;4.810;2022-09-29T17:58:04;5.50;;;3.80;;
37527;SDS011;23372;52.050;4.810;2022-09-29T18:00:33;6.67;;;4.43;;